Time;durP1;ratioP1;P1;durP2;ratioP2;P2;SDS_P1;SDS_P2;PMS_P1;PMS_P2;Temp;Humidity;BMP_temperature;BMP_pressure;BME280_temperature;BME280_humidity;BME280_pressure;Samples;Min_cycle;Max_cycle;Signal;HPM_P1;HPM_P2
2021/05/21 00:01:50;;;;;;;3.10;1.50;;;;;;;9.96;68.49;100579.44;5033434;28;20530;-74
2021/05/21 00:04:15;;;;;;;2.17;1.50;;;;;;;9.98;68.24;100574.03;5031976;28;20195;-73
2021/05/21 00:06:41;;;;;;;2.10;1.47;;;;;;;10.02;67.32;100565.78;5032457;28;20176;-73
2021/05/21 00:09:07;;;;;;;2.17;1.50;;;;;;;9.98;67.93;100563.38;5016264;28;20176;-73
2021/05/21 00:11:32;;;;;;;3.07;1.60;;;;;;;10.03;67.12;100566.63;5033636;28;20202;-73
2021/05/21 00:13:57;;;;;;;5.00;1.70;;;;;;;10.06;67.96;100555.84;5032207;28;20190;-73
2021/05/21 00:16:23;;;;;;;2.50;1.70;;;;;;;9.97;68.09;100549.19;5033361;28;20718;-72
2021/05/21 00:18:49;;;;;;;2.73;1.67;;;;;;;10.02;66.98;100546.25;5031908;28;20194;-73
2021/05/21 00:21:15;;;;;;;1.53;1.43;;;;;;;9.98;68.05;100544.72;5019720;28;20192;-72
2021/05/21 00:23:40;;;;;;;1.83;1.63;;;;;;;9.99;67.06;100541.09;5031826;28;20164;-73
2021/05/21 00:26:05;;;;;;;2.00;1.60;;;;;;;9.97;67.31;100537.66;5033037;28;20172;-73
2021/05/21 00:28:30;;;;;;;1.90;1.50;;;;;;;10.00;67.08;100526.81;5033724;28;20172;-73
2021/05/21 00:30:56;;;;;;;5.33;1.70;;;;;;;10.00;67.52;100524.16;5033023;28;20692;-73
2021/05/21 00:33:21;;;;;;;2.10;1.83;;;;;;;10.01;66.85;100516.06;5032984;28;20238;-73
2021/05/21 00:35:46;;;;;;;3.43;1.90;;;;;;;9.99;66.85;100522.44;5032720;28;20679;-73
2021/05/21 00:38:12;;;;;;;2.50;1.60;;;;;;;10.03;66.37;100515.97;5031816;28;20610;-73
2021/05/21 00:40:37;;;;;;;3.07;1.67;;;;;;;10.02;66.78;100514.25;5015155;28;20204;-73
2021/05/21 00:43:02;;;;;;;2.30;1.97;;;;;;;10.00;66.69;100513.47;5032039;28;20629;-73
2021/05/21 00:45:28;;;;;;;2.37;1.80;;;;;;;10.06;66.84;100506.97;5032260;28;20204;-73
2021/05/21 00:47:53;;;;;;;3.03;1.60;;;;;;;10.08;66.55;100499.75;5031550;28;20182;-73
2021/05/21 00:50:18;;;;;;;1.77;1.53;;;;;;;10.10;65.90;100492.53;5032334;28;20208;-73
2021/05/21 00:52:44;;;;;;;3.73;1.80;;;;;;;10.14;65.99;100496.72;5031151;28;20675;-73
2021/05/21 00:55:10;;;;;;;2.77;1.60;;;;;;;10.14;66.25;100491.41;5031749;28;20179;-73
2021/05/21 00:57:36;;;;;;;3.77;1.73;;;;;;;10.13;66.60;100489.69;5031253;28;20196;-73
2021/05/21 01:00:05;;;;;;;2.43;1.70;;;;;;;10.17;65.71;100485.91;5032462;28;20188;-73
2021/05/21 01:02:30;;;;;;;1.87;1.50;;;;;;;10.15;65.84;100469.13;5032208;28;20173;-73
2021/05/21 01:04:55;;;;;;;1.77;1.67;;;;;;;10.21;65.49;100467.00;5032873;28;20532;-73
2021/05/21 01:07:21;;;;;;;3.53;1.80;;;;;;;10.21;65.39;100471.47;5035102;28;20176;-72
2021/05/21 01:09:46;;;;;;;2.50;1.70;;;;;;;10.19;65.52;100462.66;5034660;28;20192;-72
2021/05/21 01:12:11;;;;;;;2.07;1.80;;;;;;;10.18;65.18;100467.13;5035002;28;20671;-73
2021/05/21 01:14:47;;;;;;;3.33;1.87;;;;;;;10.21;64.97;100459.00;5018207;28;20207;-72
2021/05/21 01:17:12;;;;;;;2.73;1.87;;;;;;;10.22;65.24;100459.84;5034727;28;20167;-73
2021/05/21 01:19:38;;;;;;;4.13;2.00;;;;;;;10.27;64.77;100447.09;5034591;28;20201;-72
2021/05/21 01:22:03;;;;;;;1.93;1.73;;;;;;;10.31;63.81;100451.31;5034836;28;20600;-72
2021/05/21 01:24:28;;;;;;;7.40;1.87;;;;;;;10.28;64.51;100439.00;5035000;28;20540;-73
2021/05/21 01:26:57;;;;;;;2.17;1.60;;;;;;;10.28;64.60;100435.50;5035598;28;20659;-73
2021/05/21 01:29:23;;;;;;;2.80;1.70;;;;;;;10.28;63.98;100441.69;5034651;28;20214;-73
2021/05/21 01:31:48;;;;;;;2.97;1.67;;;;;;;10.28;64.32;100436.34;5035483;28;20196;-73
2021/05/21 01:34:13;;;;;;;3.67;1.77;;;;;;;10.33;63.54;100444.06;5034300;28;20552;-73
2021/05/21 01:36:40;;;;;;;3.13;1.63;;;;;;;10.39;62.88;100434.84;5035425;28;20226;-73
2021/05/21 01:39:09;;;;;;;2.77;1.70;;;;;;;10.44;63.14;100439.00;5017483;28;20184;-74
2021/05/21 01:41:36;;;;;;;3.00;1.70;;;;;;;10.41;63.10;100436.50;5035499;28;20252;-73
2021/05/21 01:44:03;;;;;;;1.73;1.57;;;;;;;10.44;63.22;100435.47;5034320;28;20676;-73
2021/05/21 01:46:28;;;;;;;1.77;1.43;;;;;;;10.42;64.26;100424.03;5034205;28;20172;-73
2021/05/21 01:48:54;;;;;;;2.10;1.33;;;;;;;10.36;64.09;100427.03;5035313;28;20180;-72
2021/05/21 01:51:19;;;;;;;5.20;1.50;;;;;;;10.39;63.27;100422.38;5033979;28;20746;-74
2021/05/21 01:53:44;;;;;;;1.60;1.50;;;;;;;10.31;64.42;100420.16;5034688;28;20176;-74
2021/05/21 01:56:10;;;;;;;2.27;1.70;;;;;;;10.29;64.33;100411.38;5035468;28;20521;-72
2021/05/21 01:58:35;;;;;;;2.10;1.57;;;;;;;10.37;63.61;100410.94;5033822;28;20226;-72
2021/05/21 02:01:01;;;;;;;6.00;1.57;;;;;;;10.33;63.70;100402.25;5033585;28;20192;-72
2021/05/21 02:03:30;;;;;;;2.03;1.40;;;;;;;10.46;63.41;100404.22;5035243;28;20172;-72
2021/05/21 02:05:56;;;;;;;3.70;1.80;;;;;;;10.53;63.67;100402.91;5035396;28;20187;-72
2021/05/21 02:08:26;;;;;;;2.03;1.70;;;;;;;10.55;63.77;100406.34;5033682;28;20216;-73
2021/05/21 02:10:53;;;;;;;2.00;1.80;;;;;;;10.43;65.53;100399.06;5033894;28;20676;-72
2021/05/21 02:13:18;;;;;;;4.23;1.80;;;;;;;10.13;68.91;100389.22;5016979;28;20192;-73
2021/05/21 02:15:44;;;;;;;3.60;2.10;;;;;;;9.96;69.78;100387.50;5017201;28;20184;-72
2021/05/21 02:18:09;;;;;;;3.17;2.10;;;;;;;9.84;71.08;100392.69;5033014;28;20208;-72
2021/05/21 02:20:35;;;;;;;2.30;2.10;;;;;;;9.60;73.55;100427.72;5035033;28;20219;-72
2021/05/21 02:23:00;;;;;;;3.97;2.27;;;;;;;9.63;73.65;100456.88;5033925;28;20168;-72
2021/05/21 02:25:25;;;;;;;3.43;2.50;;;;;;;9.28;75.13;100437.47;5033764;28;20177;-73
2021/05/21 02:27:51;;;;;;;2.57;2.33;;;;;;;9.26;75.92;100446.50;5033466;28;20549;-72
2021/05/21 02:30:17;;;;;;;2.97;2.43;;;;;;;9.03;77.32;100418.44;5033250;28;20242;-72
2021/05/21 02:32:42;;;;;;;4.90;2.67;;;;;;;8.87;77.74;100405.06;5034648;28;20199;-72
2021/05/21 02:35:09;;;;;;;3.43;2.70;;;;;;;8.77;78.59;100377.22;5034798;28;20176;-73
2021/05/21 02:37:34;;;;;;;3.93;3.37;;;;;;;8.76;79.85;100389.69;5033213;28;20229;-72
2021/05/21 02:39:59;;;;;;;3.90;2.90;;;;;;;8.70;80.32;100375.84;5034635;28;20205;-72
2021/05/21 02:42:25;;;;;;;5.97;2.80;;;;;;;8.59;82.05;100363.09;5034179;28;20659;-72
2021/05/21 02:44:50;;;;;;;4.80;3.10;;;;;;;8.46;84.53;100357.53;5033495;28;20176;-71
2021/05/21 02:47:15;;;;;;;6.03;3.30;;;;;;;8.41;85.75;100351.59;5034695;28;20175;-72
2021/05/21 02:49:41;;;;;;;5.20;3.40;;;;;;;8.40;89.80;100346.38;5034069;28;20216;-73
2021/05/21 02:52:06;;;;;;;4.03;3.23;;;;;;;8.45;87.06;100337.19;5033367;28;20656;-73
2021/05/21 02:54:31;;;;;;;5.80;3.50;;;;;;;8.35;89.30;100332.44;5034213;28;20176;-73
2021/05/21 02:56:57;;;;;;;3.93;3.20;;;;;;;8.35;87.70;100322.66;5033040;28;20624;-73
2021/05/21 02:59:22;;;;;;;3.80;3.37;;;;;;;8.35;86.62;100324.47;5033033;28;20179;-73
2021/05/21 03:01:48;;;;;;;5.43;3.57;;;;;;;8.38;88.37;100308.34;5032764;28;20205;-72
2021/05/21 03:04:13;;;;;;;3.67;3.30;;;;;;;8.45;88.79;100293.78;5032879;28;20183;-73
2021/05/21 03:06:38;;;;;;;4.70;3.90;;;;;;;8.57;89.04;100289.66;5032762;28;20540;-72
2021/05/21 03:09:04;;;;;;;4.53;3.93;;;;;;;8.57;90.42;100290.50;5034287;28;20172;-73
2021/05/21 03:11:29;;;;;;;4.03;3.60;;;;;;;8.51;90.91;100289.94;5016558;28;20196;-73
2021/05/21 03:13:54;;;;;;;5.23;3.90;;;;;;;8.53;88.69;100296.03;5032605;28;20229;-73
2021/05/21 03:16:20;;;;;;;5.57;4.20;;;;;;;8.49;92.67;100284.72;5034099;28;20176;-73
2021/05/21 03:18:45;;;;;;;6.80;4.87;;;;;;;8.46;95.62;100290.19;5033015;28;20641;-72
2021/05/21 03:21:10;;;;;;;6.23;4.77;;;;;;;8.41;96.97;100290.44;5033571;28;20242;-73
2021/05/21 03:23:36;;;;;;;6.13;5.40;;;;;;;8.32;97.61;100276.75;5032435;28;20179;-72
2021/05/21 03:26:01;;;;;;;4.40;3.97;;;;;;;8.41;93.59;100274.47;5032375;28;20172;-73
2021/05/21 03:28:26;;;;;;;4.43;4.03;;;;;;;8.53;92.05;100272.09;5032398;28;20226;-73
2021/05/21 03:30:52;;;;;;;4.30;3.90;;;;;;;8.58;91.65;100272.75;5032966;28;20220;-73
2021/05/21 03:33:17;;;;;;;4.50;4.07;;;;;;;8.62;91.01;100266.31;5032784;28;20200;-72
2021/05/21 03:35:43;;;;;;;6.00;4.27;;;;;;;8.62;91.78;100269.84;5032945;28;20180;-74
2021/05/21 03:38:09;;;;;;;5.17;4.67;;;;;;;8.64;91.78;100275.94;5032469;28;20207;-73
2021/05/21 03:40:36;;;;;;;5.23;4.17;;;;;;;8.72;89.83;100268.38;5033880;28;20216;-73
2021/05/21 03:43:01;;;;;;;4.63;3.50;;;;;;;8.72;89.92;100272.84;5032053;28;20255;-72
2021/05/21 03:45:27;;;;;;;4.40;3.60;;;;;;;8.74;89.34;100268.31;5032522;28;20203;-73
2021/05/21 03:47:52;;;;;;;4.83;4.20;;;;;;;8.63;90.20;100249.41;5036187;28;20172;-73
2021/05/21 03:50:20;;;;;;;5.37;3.80;;;;;;;8.60;90.69;100257.56;5038865;23;20224;-69
2021/05/21 03:52:46;;;;;;;4.93;3.50;;;;;;;8.51;89.98;100260.69;5033216;28;20196;-70
2021/05/21 03:55:12;;;;;;;6.17;4.57;;;;;;;8.48;89.74;100253.72;5033132;28;20179;-70
2021/05/21 03:57:38;;;;;;;4.50;4.10;;;;;;;8.39;91.42;100249.78;5031625;28;20654;-70
2021/05/21 04:00:05;;;;;;;5.67;4.77;;;;;;;8.40;90.94;100248.81;5032869;28;20200;-70
2021/05/21 04:02:31;;;;;;;4.93;4.10;;;;;;;8.44;90.68;100237.09;5048280;28;20262;-69
2021/05/21 04:04:56;;;;;;;6.17;4.50;;;;;;;8.60;88.99;100238.94;5031700;28;20200;-69
2021/05/21 04:07:21;;;;;;;5.27;4.23;;;;;;;8.73;88.14;100235.50;5033214;28;20571;-69
2021/05/21 04:09:47;;;;;;;5.13;4.57;;;;;;;8.55;92.24;100243.63;5031735;28;20176;-68
2021/05/21 04:12:12;;;;;;;6.73;3.90;;;;;;;8.67;88.59;100229.69;5048789;28;20200;-68
2021/05/21 04:14:37;;;;;;;7.50;4.60;;;;;;;8.60;90.28;100228.28;5032815;28;20261;-69
2021/05/21 04:17:02;;;;;;;5.53;3.93;;;;;;;8.52;89.47;100226.03;5033085;28;20184;-69
2021/05/21 04:19:28;;;;;;;7.40;4.83;;;;;;;8.46;89.13;100226.38;5032744;28;20645;-69
2021/05/21 04:21:53;;;;;;;6.07;4.07;;;;;;;8.53;86.93;100218.91;5032742;28;20239;-69
2021/05/21 04:24:18;;;;;;;5.77;3.90;;;;;;;8.64;86.13;100212.09;5031862;28;20214;-69
2021/05/21 04:26:44;;;;;;;7.90;3.97;;;;;;;8.63;85.46;100206.84;5032772;28;20195;-69
2021/05/21 04:29:09;;;;;;;5.37;3.93;;;;;;;8.72;84.11;100204.53;5031932;28;20644;-69
2021/05/21 04:31:34;;;;;;;4.53;3.57;;;;;;;8.85;83.49;100196.72;5033002;28;20203;-70
2021/05/21 04:34:00;;;;;;;5.80;3.23;;;;;;;8.98;82.21;100195.09;5033690;28;20173;-70
2021/05/21 04:36:25;;;;;;;3.50;3.20;;;;;;;9.16;80.65;100187.88;5035282;28;20172;-68
2021/05/21 04:38:50;;;;;;;5.10;3.43;;;;;;;9.37;79.09;100180.47;5033118;28;20541;-71
2021/05/21 04:41:16;;;;;;;3.97;3.53;;;;;;;9.48;79.66;100179.81;5032970;28;20246;-68
2021/05/21 04:43:41;;;;;;;4.17;3.27;;;;;;;9.57;77.98;100177.47;5036647;28;20234;-68
2021/05/21 04:46:07;;;;;;;7.63;3.20;;;;;;;9.60;78.41;100171.97;5036466;28;20518;-68
2021/05/21 04:48:32;;;;;;;3.63;3.33;;;;;;;9.78;77.16;100171.81;5051644;28;20180;-68
2021/05/21 04:50:58;;;;;;;3.73;3.33;;;;;;;9.96;76.24;100166.22;5036226;28;20672;-68
2021/05/21 04:53:24;;;;;;;4.80;3.40;;;;;;;10.02;76.80;100163.19;5036506;28;20200;-68
2021/05/21 04:55:49;;;;;;;3.30;2.80;;;;;;;10.18;75.36;100155.13;5036383;28;20175;-69
2021/05/21 04:58:15;;;;;;;5.17;3.57;;;;;;;10.29;74.15;100158.00;5051479;28;20168;-69
2021/05/21 05:00:40;;;;;;;3.33;3.03;;;;;;;10.38;74.12;100147.69;5034635;28;20196;-67
2021/05/21 05:03:10;;;;;;;3.40;3.10;;;;;;;10.49;73.76;100137.22;5036037;28;20666;-69
2021/05/21 05:05:35;;;;;;;3.77;3.27;;;;;;;10.49;73.76;100130.09;5034760;28;20192;-70
2021/05/21 05:08:00;;;;;;;7.23;3.73;;;;;;;10.47;72.94;100121.31;5034427;28;20211;-74
2021/05/21 05:10:26;;;;;;;3.97;3.23;;;;;;;10.64;73.06;100118.41;5035747;28;20188;-70
2021/05/21 05:12:52;;;;;;;3.90;2.97;;;;;;;10.72;73.53;100123.25;5036510;28;20196;-70
2021/05/21 05:15:19;;;;;;;8.87;3.43;;;;;;;10.82;72.00;100121.72;5034441;28;20172;-69
2021/05/21 05:17:47;;;;;;;4.17;3.40;;;;;;;10.72;71.79;100117.06;5034284;28;20184;-69
2021/05/21 05:20:13;;;;;;;7.33;3.80;;;;;;;10.74;72.63;100124.00;5035809;28;20188;-70
2021/05/21 05:22:38;;;;;;;6.80;3.77;;;;;;;10.82;72.98;100127.06;5035860;28;20233;-70
2021/05/21 05:25:03;;;;;;;4.17;3.20;;;;;;;10.82;72.09;100113.72;5035994;28;20253;-70
2021/05/21 05:27:29;;;;;;;4.37;3.43;;;;;;;10.83;72.77;100112.75;5034456;28;20176;-69
2021/05/21 05:29:54;;;;;;;5.67;3.70;;;;;;;11.12;71.19;100112.63;5034644;28;20665;-69
2021/05/21 05:32:19;;;;;;;6.33;4.07;;;;;;;10.93;71.47;100107.66;5034256;28;20192;-69
2021/05/21 05:34:45;;;;;;;4.73;3.80;;;;;;;11.21;70.78;100106.69;5035568;28;20259;-69
2021/05/21 05:37:10;;;;;;;3.70;3.33;;;;;;;11.03;71.60;100100.75;5035355;28;20180;-69
2021/05/21 05:39:35;;;;;;;3.67;3.37;;;;;;;11.05;71.94;100097.97;5034916;28;20180;-69
2021/05/21 05:42:01;;;;;;;8.53;3.43;;;;;;;11.09;71.11;100095.00;5034573;28;20176;-69
2021/05/21 05:44:27;;;;;;;5.57;3.40;;;;;;;11.10;71.33;100094.03;5035756;28;20526;-69
2021/05/21 05:46:52;;;;;;;6.27;3.70;;;;;;;11.16;71.31;100082.13;5035701;28;20181;-69
2021/05/21 05:49:18;;;;;;;5.90;3.70;;;;;;;11.05;71.99;100072.13;5035914;28;20233;-68
2021/05/21 05:51:43;;;;;;;6.20;3.30;;;;;;;11.00;71.41;100084.94;5034104;28;20711;-70
2021/05/21 05:54:08;;;;;;;4.03;3.50;;;;;;;11.03;71.83;100075.84;5034232;28;20180;-70
2021/05/21 05:56:34;;;;;;;5.93;3.57;;;;;;;11.13;71.11;100080.47;5036196;28;20172;-69
2021/05/21 05:58:59;;;;;;;5.07;3.40;;;;;;;11.33;70.99;100081.81;5035475;28;20176;-68
2021/05/21 06:01:24;;;;;;;4.00;3.10;;;;;;;11.26;71.01;100072.50;5035647;28;20192;-70
2021/05/21 06:03:50;;;;;;;3.43;3.13;;;;;;;11.53;69.88;100059.94;5050457;28;20177;-68
2021/05/21 06:06:15;;;;;;;5.23;3.10;;;;;;;11.59;68.99;100051.50;5051216;28;20172;-69
2021/05/21 06:08:40;;;;;;;3.87;3.03;;;;;;;12.15;66.81;100064.53;5034930;28;20647;-70
2021/05/21 06:11:05;;;;;;;3.83;2.97;;;;;;;11.97;68.27;100060.50;5035516;28;20192;-69
2021/05/21 06:13:31;;;;;;;4.60;2.90;;;;;;;12.21;66.27;100043.53;5035239;28;20196;-70
2021/05/21 06:15:56;;;;;;;5.57;3.00;;;;;;;12.36;65.95;100043.41;5036534;28;20174;-68
2021/05/21 06:18:21;;;;;;;4.53;2.87;;;;;;;12.20;66.82;100049.00;5035915;28;20536;-69
2021/05/21 06:20:47;;;;;;;3.67;2.63;;;;;;;12.34;66.06;100045.34;5052853;28;20203;-70
2021/05/21 06:23:12;;;;;;;4.60;2.70;;;;;;;12.53;65.99;100037.69;5034107;28;20187;-69
2021/05/21 06:25:55;;;;;;;3.90;2.70;;;;;;;12.26;67.29;100029.81;5035964;28;20182;-69
2021/05/21 06:28:24;;;;;;;5.13;2.77;;;;;;;12.30;67.17;100028.66;5035914;28;20153;-69
2021/05/21 06:30:50;;;;;;;5.37;2.73;;;;;;;12.32;67.63;100023.22;5033991;28;20211;-69
2021/05/21 06:33:16;;;;;;;3.10;2.70;;;;;;;12.37;66.98;100013.00;5049809;28;20568;-69
2021/05/21 06:35:41;;;;;;;2.70;2.13;;;;;;;12.45;66.95;100015.97;5035454;28;20226;-70
2021/05/21 06:38:07;;;;;;;5.03;2.90;;;;;;;12.56;66.08;99997.28;5050560;28;20267;-70
2021/05/21 06:40:32;;;;;;;3.30;2.40;;;;;;;12.58;66.12;99990.00;5034124;28;20228;-69
2021/05/21 06:42:58;;;;;;;2.90;2.47;;;;;;;12.60;65.47;99993.41;5034106;28;20479;-69
2021/05/21 06:45:23;;;;;;;3.70;2.43;;;;;;;12.92;64.81;99999.03;5034066;28;20634;-70
2021/05/21 06:47:48;;;;;;;4.03;2.57;;;;;;;13.10;63.55;99991.44;5033673;28;20179;-71
2021/05/21 06:50:14;;;;;;;4.07;2.33;;;;;;;13.41;63.31;99996.19;5032897;28;20398;-70
2021/05/21 06:52:39;;;;;;;2.37;2.17;;;;;;;13.52;62.10;99986.44;5034361;28;20206;-69
2021/05/21 06:55:06;;;;;;;2.83;2.13;;;;;;;13.42;61.77;99984.50;5032874;28;20171;-69
2021/05/21 06:57:31;;;;;;;3.30;2.17;;;;;;;13.89;60.92;99979.03;5049572;28;20168;-68
2021/05/21 06:59:57;;;;;;;2.63;2.20;;;;;;;13.70;61.95;99974.25;5032797;28;20275;-69
2021/05/21 07:02:25;;;;;;;4.80;2.00;;;;;;;13.86;60.73;99965.84;5034456;28;20641;-70
2021/05/21 07:04:51;;;;;;;4.57;2.20;;;;;;;13.94;60.26;99966.09;5032400;28;20165;-70
2021/05/21 07:07:16;;;;;;;6.07;2.20;;;;;;;13.47;61.17;99967.19;5033943;28;20169;-69
2021/05/21 07:09:41;;;;;;;2.23;1.90;;;;;;;13.46;61.86;99960.97;5034349;28;20180;-69
2021/05/21 07:12:07;;;;;;;2.03;1.70;;;;;;;13.75;61.68;99953.28;5034129;28;20196;-69
2021/05/21 07:14:32;;;;;;;4.13;1.87;;;;;;;13.98;60.97;99941.56;5034596;28;20267;-70
2021/05/21 07:16:57;;;;;;;2.03;1.80;;;;;;;14.00;60.74;99946.81;5050350;28;20187;-69
2021/05/21 07:19:23;;;;;;;5.77;2.03;;;;;;;14.67;59.47;99955.56;5036163;28;20255;-70
2021/05/21 07:21:48;;;;;;;1.70;1.50;;;;;;;14.24;58.27;99938.59;5040729;28;20201;-70
2021/05/21 07:24:14;;;;;;;2.97;1.73;;;;;;;14.29;59.29;99955.16;5034206;28;20188;-70
2021/05/21 07:26:39;;;;;;;2.10;1.63;;;;;;;14.30;58.51;99947.00;5034870;28;20216;-70
2021/05/21 07:29:06;;;;;;;2.53;1.70;;;;;;;14.62;57.80;99947.03;5032995;28;20185;-70
2021/05/21 07:31:31;;;;;;;3.53;1.80;;;;;;;14.57;57.72;99938.53;5035330;28;20195;-70
2021/05/21 07:33:58;;;;;;;1.77;1.60;;;;;;;14.74;58.41;99939.78;5038656;28;20188;-70
2021/05/21 07:36:23;;;;;;;1.90;1.70;;;;;;;14.54;58.71;99929.88;5049803;28;20177;-70
2021/05/21 07:38:49;;;;;;;4.33;1.97;;;;;;;14.36;59.53;99926.84;5046294;28;20180;-69
2021/05/21 07:41:16;;;;;;;1.67;1.50;;;;;;;15.01;57.49;99924.00;5051654;28;20204;-70
2021/05/21 07:43:41;;;;;;;1.73;1.47;;;;;;;15.24;55.97;99907.75;5052239;28;20172;-72
2021/05/21 07:46:06;;;;;;;3.27;1.63;;;;;;;14.87;56.08;99910.06;5039744;28;20187;-70
2021/05/21 07:48:32;;;;;;;5.27;1.73;;;;;;;15.07;55.69;99895.75;5034070;28;20641;-70
2021/05/21 07:50:57;;;;;;;2.07;1.50;;;;;;;15.41;55.26;99890.16;5032647;28;20223;-69
2021/05/21 07:53:22;;;;;;;3.03;1.53;;;;;;;15.90;54.26;99892.03;5032660;28;20207;-70
2021/05/21 07:55:48;;;;;;;3.17;1.57;;;;;;;15.75;54.36;99888.91;5034347;28;20196;-70
2021/05/21 07:58:14;;;;;;;2.03;1.63;;;;;;;16.01;52.66;99883.03;5032853;28;20180;-69
2021/05/21 08:00:40;;;;;;;2.53;1.60;;;;;;;16.05;51.60;99879.91;5048649;28;20219;-69
2021/05/21 08:03:06;;;;;;;2.93;1.50;;;;;;;16.28;51.87;99875.09;5049802;28;20537;-69
2021/05/21 08:05:31;;;;;;;2.53;1.57;;;;;;;16.69;50.58;99870.44;5033550;28;20180;-69
2021/05/21 08:07:57;;;;;;;2.90;1.47;;;;;;;16.65;49.87;99861.78;5048560;28;20215;-70
2021/05/21 08:10:22;;;;;;;1.50;1.30;;;;;;;16.89;49.62;99869.44;5031928;28;20207;-70
2021/05/21 08:12:47;;;;;;;2.30;1.50;;;;;;;16.89;49.46;99858.66;5015964;28;20200;-70
2021/05/21 08:15:13;;;;;;;1.83;1.37;;;;;;;16.19;50.29;99854.41;5031742;28;20614;-69
2021/05/21 08:17:38;;;;;;;1.63;1.20;;;;;;;15.48;53.50;99848.28;5052606;28;20184;-70
2021/05/21 08:20:04;;;;;;;2.17;1.30;;;;;;;16.08;51.47;99859.94;5037021;28;20226;-69
2021/05/21 08:22:30;;;;;;;4.23;1.10;;;;;;;16.02;51.89;99855.13;5036676;28;20583;-70
2021/05/21 08:24:55;;;;;;;1.83;1.43;;;;;;;16.20;51.42;99846.19;5051810;28;20186;-70
2021/05/21 08:27:20;;;;;;;4.47;1.27;;;;;;;16.40;50.95;99851.59;5035250;28;20690;-70
2021/05/21 08:29:46;;;;;;;1.53;1.00;;;;;;;16.38;51.61;99827.50;5036761;28;20556;-69
2021/05/21 08:32:11;;;;;;;1.90;1.30;;;;;;;16.66;50.96;99835.72;5035148;28;20261;-69
2021/05/21 08:34:36;;;;;;;3.47;1.27;;;;;;;16.97;49.74;99828.28;5036460;28;20212;-69
2021/05/21 08:37:02;;;;;;;1.70;1.40;;;;;;;16.92;49.49;99828.72;5036682;28;20278;-70
2021/05/21 08:39:27;;;;;;;3.53;1.47;;;;;;;16.90;50.48;99825.31;5036895;28;20540;-69
2021/05/21 08:41:54;;;;;;;1.43;1.10;;;;;;;16.12;51.52;99808.38;5036467;28;20280;-69
2021/05/21 08:44:20;;;;;;;7.37;1.50;;;;;;;16.53;50.23;99815.28;5052269;28;20179;-70
2021/05/21 08:46:45;;;;;;;2.67;1.30;;;;;;;16.14;51.26;99809.09;5035386;28;20173;-70
2021/05/21 08:49:11;;;;;;;1.03;0.90;;;;;;;15.76;52.53;99806.34;5035343;28;20184;-70
2021/05/21 08:51:36;;;;;;;2.40;1.20;;;;;;;16.35;51.14;99800.00;5034954;28;20212;-70
2021/05/21 08:54:02;;;;;;;4.53;1.40;;;;;;;16.35;51.23;99789.22;5036666;28;20196;-70
2021/05/21 08:56:28;;;;;;;2.13;1.40;;;;;;;16.98;49.17;99803.03;5036747;28;20171;-70
2021/05/21 08:58:53;;;;;;;2.80;1.33;;;;;;;17.22;49.21;99795.28;5052363;28;20184;-70
2021/05/21 09:01:19;;;;;;;1.27;1.10;;;;;;;17.09;48.79;99783.97;5035302;28;20655;-70
2021/05/21 09:03:46;;;;;;;3.10;1.10;;;;;;;16.80;49.59;99789.47;5035844;28;20563;-69
2021/05/21 09:06:22;;;;;;;1.30;1.03;;;;;;;16.85;49.33;99779.09;5051794;28;20195;-70
2021/05/21 09:08:51;;;;;;;7.43;1.60;;;;;;;17.43;47.67;99785.09;5036915;28;20156;-70
2021/05/21 09:11:36;;;;;;;3.57;1.00;;;;;;;17.26;46.35;99776.97;5034878;28;20188;-70
2021/05/21 09:14:11;;;;;;;1.73;1.10;;;;;;;16.66;49.02;99763.84;5035537;28;20638;-70
2021/05/21 09:16:41;;;;;;;1.80;1.00;;;;;;;17.40;47.34;99773.75;5051681;28;20212;-70
2021/05/21 09:19:14;;;;;;;2.00;0.90;;;;;;;17.63;46.59;99769.66;5051411;28;20671;-69
2021/05/21 09:22:05;;;;;;;1.87;0.90;;;;;;;16.99;48.85;99765.16;5036532;28;20195;-70
2021/05/21 09:24:41;;;;;;;1.60;0.90;;;;;;;17.79;45.90;99767.16;5037175;28;20239;-70
2021/05/21 09:27:07;;;;;;;1.47;0.73;;;;;;;17.79;47.08;99766.28;5036857;28;20351;-71
2021/05/21 09:29:46;;;;;;;2.27;1.27;;;;;;;17.60;47.40;99766.41;5034574;28;20291;-71
2021/05/21 09:32:31;;;;;;;4.83;1.20;;;;;;;18.20;45.23;99777.47;5050715;28;20557;-71
2021/05/21 09:35:12;;;;;;;7.17;1.20;;;;;;;17.84;46.20;99766.72;5051151;28;20649;-70
2021/05/21 09:37:42;;;;;;;1.30;1.20;;;;;;;17.81;46.05;99756.19;5035792;28;20195;-70
2021/05/21 09:40:13;;;;;;;2.63;1.30;;;;;;;17.39;46.81;99756.72;5035353;28;20273;-70
2021/05/21 09:43:04;;;;;;;1.37;1.00;;;;;;;17.40;47.07;99757.56;5035472;28;20720;-69
2021/05/21 09:45:36;;;;;;;2.80;1.30;;;;;;;16.99;48.53;99735.50;5036191;28;20168;-70
2021/05/21 09:48:09;;;;;;;1.77;1.03;;;;;;;16.66;49.59;99736.88;5035538;28;20652;-70
2021/05/21 09:50:50;;;;;;;1.60;1.17;;;;;;;16.27;51.46;99742.31;5068377;22;20253;-73
2021/05/21 09:53:24;;;;;;;1.60;1.17;;;;;;;17.01;49.87;99732.66;5016088;28;20177;-73
2021/05/21 09:55:51;;;;;;;2.77;1.20;;;;;;;17.76;46.87;99731.53;5015147;28;20183;-74
2021/05/21 09:58:33;;;;;;;2.73;1.00;;;;;;;17.59;47.37;99721.56;5014870;28;20177;-73
2021/05/21 10:01:21;;;;;;;1.10;1.00;;;;;;;17.59;46.92;99708.91;5015521;28;20188;-72
2021/05/21 10:03:53;;;;;;;3.00;0.90;;;;;;;17.96;46.87;99698.00;4997870;28;20199;-73
2021/05/21 10:06:18;;;;;;;2.53;0.90;;;;;;;17.91;45.60;99688.66;5014818;28;20166;-72
2021/05/21 10:08:46;;;;;;;2.53;0.90;;;;;;;18.02;44.94;99689.25;5015702;28;20546;-73
2021/05/21 10:11:11;;;;;;;1.63;1.00;;;;;;;18.05;46.06;99667.34;4997848;28;20212;-74
2021/05/21 10:13:37;;;;;;;1.37;0.90;;;;;;;18.09;45.28;99659.78;5014039;28;20193;-74
2021/05/21 10:16:04;;;;;;;1.10;0.80;;;;;;;18.44;45.19;99653.44;5013834;28;20261;-73
2021/05/21 10:18:29;;;;;;;2.20;1.37;;;;;;;18.23;44.55;99659.22;5013894;28;20640;-73
2021/05/21 10:20:56;;;;;;;1.63;1.17;;;;;;;18.04;45.71;99649.47;5013971;28;20212;-73
2021/05/21 10:23:24;;;;;;;1.63;0.83;;;;;;;18.09;45.78;99636.31;5013809;28;20208;-72
2021/05/21 10:25:53;;;;;;;4.37;1.67;;;;;;;18.48;45.98;99654.81;5013696;28;20176;-72
2021/05/21 10:28:19;;;;;;;2.40;0.70;;;;;;;18.03;46.45;99636.13;5013850;28;20169;-73
2021/05/21 10:30:44;;;;;;;4.93;1.40;;;;;;;18.43;44.41;99628.28;5014197;28;20685;-73
2021/05/21 10:33:16;;;;;;;2.60;0.80;;;;;;;17.98;45.53;99630.34;5013948;28;20195;-73
2021/05/21 10:35:41;;;;;;;2.07;1.10;;;;;;;18.08;45.01;99631.94;5019270;28;20181;-73
2021/05/21 10:38:17;;;;;;;3.87;1.03;;;;;;;18.69;43.66;99636.38;5016718;28;20195;-72
2021/05/21 10:40:43;;;;;;;1.00;0.80;;;;;;;17.70;45.50;99624.22;5015084;28;20279;-74
2021/05/21 10:43:15;;;;;;;3.07;1.00;;;;;;;18.52;43.96;99641.81;5014915;28;20176;-74
2021/05/21 10:45:54;;;;;;;0.97;0.73;;;;;;;18.54;42.71;99626.28;5015180;28;20223;-74
2021/05/21 10:48:27;;;;;;;1.13;0.90;;;;;;;18.29;43.33;99626.19;5013565;28;20653;-73
2021/05/21 10:51:07;;;;;;;1.40;0.77;;;;;;;18.60;42.74;99625.66;5013544;28;20205;-73
2021/05/21 10:53:33;;;;;;;1.60;0.90;;;;;;;18.61;41.64;99628.22;5013535;28;20534;-73
2021/05/21 10:56:02;;;;;;;0.77;0.60;;;;;;;18.57;42.88;99613.31;5013649;28;20176;-74
2021/05/21 10:58:34;;;;;;;0.70;0.70;;;;;;;18.51;43.41;99622.06;4997152;28;20494;-73
2021/05/21 11:01:16;;;;;;;2.03;0.90;;;;;;;20.17;40.90;99605.84;5014414;28;20307;-72
2021/05/21 11:04:07;;;;;;;1.93;0.70;;;;;;;20.85;37.97;99608.03;4997434;28;20191;-74
2021/05/21 11:06:43;;;;;;;2.33;1.10;;;;;;;22.88;34.08;99594.63;5013043;28;20179;-73
2021/05/21 11:09:11;;;;;;;1.90;1.03;;;;;;;22.99;32.33;99594.97;5013044;28;20231;-73
2021/05/21 11:11:48;;;;;;;1.40;0.60;;;;;;;22.07;34.10;99590.94;5012810;28;20200;-73
2021/05/21 11:14:37;;;;;;;1.87;0.80;;;;;;;21.67;35.59;99595.66;5013357;28;20203;-75
2021/05/21 11:17:26;;;;;;;4.60;2.80;;;;;;;20.44;36.33;99582.94;5013486;28;20161;-74
2021/05/21 11:19:56;;;;;;;7.03;1.93;;;;;;;22.55;32.75;99589.53;5013151;28;20173;-75
2021/05/21 11:22:37;;;;;;;5.67;1.00;;;;;;;23.76;31.19;99583.44;5013087;28;20192;-74
2021/05/21 11:25:07;;;;;;;2.03;0.80;;;;;;;23.94;30.80;99575.63;4996295;28;20165;-73
2021/05/21 11:27:34;;;;;;;1.37;0.90;;;;;;;23.25;32.33;99572.66;5013956;28;20161;-73
2021/05/21 11:30:04;;;;;;;1.60;0.70;;;;;;;23.45;31.29;99589.22;5014201;28;20252;-75
2021/05/21 11:32:30;;;;;;;1.90;0.80;;;;;;;24.16;30.14;99578.28;5012763;28;20239;-73